createdAt,value
2023-05-01T00:02:22.452Z,73.51
2023-05-01T00:04:50.733Z,73.64
2023-05-01T00:07:18.577Z,74.15
2023-05-01T00:09:46.645Z,74.31
2023-05-01T00:12:14.610Z,74.22
2023-05-01T00:14:42.625Z,74.63
2023-05-01T00:17:10.283Z,74.61
2023-05-01T00:19:38.521Z,74.79
2023-05-01T00:22:06.640Z,74.65
2023-05-01T00:24:34.772Z,75.34
2023-05-01T00:27:03.229Z,75.67
2023-05-01T00:29:31.415Z,76.02
2023-05-01T00:31:59.164Z,76.28
2023-05-01T00:34:27.239Z,76.02
2023-05-01T00:36:54.834Z,76.45
2023-05-01T00:39:22.852Z,76.90
2023-05-01T00:41:50.548Z,76.66
2023-05-01T00:44:18.529Z,77.51
2023-05-01T00:46:46.437Z,77.73
2023-05-01T00:49:14.972Z,78.35
2023-05-01T00:51:44.029Z,78.70
2023-05-01T00:54:12.061Z,79.52
2023-05-01T00:56:39.863Z,79.95
2023-05-01T00:59:07.888Z,80.67
2023-05-01T01:01:35.907Z,81.23
2023-05-01T01:04:03.988Z,81.67
2023-05-01T01:06:57.251Z,81.70
2023-05-01T01:09:29.105Z,82.35
2023-05-01T01:12:06.801Z,82.72
2023-05-01T01:14:45.530Z,82.86
2023-05-01T01:17:29.705Z,83.28
2023-05-01T01:20:24.174Z,83.88
2023-05-01T01:23:20.952Z,84.34
2023-05-01T01:26:12.212Z,84.47
2023-05-01T01:29:07.680Z,84.81
2023-05-01T01:31:58.641Z,85.11
2023-05-01T01:35:00.325Z,85.91
2023-05-01T01:37:48.518Z,86.30
2023-05-01T01:40:24.368Z,86.62
2023-05-01T01:43:02.685Z,86.64
2023-05-01T01:45:47.968Z,86.89
2023-05-01T01:48:25.395Z,87.17
2023-05-01T01:50:54.922Z,87.86
2023-05-01T01:53:25.896Z,88.27
2023-05-01T01:55:55.920Z,88.33
2023-05-01T01:58:38.915Z,88.80
2023-05-01T02:01:08.095Z,88.99
2023-05-01T02:03:38.827Z,89.13
2023-05-01T02:06:08.447Z,89.21
2023-05-01T02:08:38.589Z,89.25
2023-05-01T02:11:10.776Z,89.39
2023-05-01T02:13:40.870Z,89.69
2023-05-01T02:16:09.849Z,90.01
2023-05-01T02:18:38.456Z,90.06
2023-05-01T02:21:07.009Z,90.24
2023-05-01T02:23:39.092Z,90.70
2023-05-01T02:26:11.669Z,90.86
2023-05-01T02:28:41.533Z,90.77
2023-05-01T02:31:10.489Z,91.41
2023-05-01T02:33:38.564Z,91.89
2023-05-01T02:36:06.713Z,91.77
2023-05-01T02:38:35.742Z,91.74
2023-05-01T02:41:04.293Z,92.19
2023-05-01T02:43:34.294Z,92.30
2023-05-01T02:46:05.146Z,92.54
2023-05-01T02:48:35.432Z,92.65
2023-05-01T02:51:05.116Z,93.25
2023-05-01T02:53:33.655Z,92.88
2023-05-01T02:56:14.664Z,93.37
2023-05-01T02:58:44.471Z,93.18
2023-05-01T03:01:12.366Z,93.34
2023-05-01T03:03:40.441Z,93.77
2023-05-01T03:06:08.439Z,93.53
2023-05-01T03:08:36.665Z,93.66
2023-05-01T03:11:08.048Z,93.23
2023-05-01T03:13:36.466Z,93.92
2023-05-01T03:16:04.726Z,93.91
2023-05-01T03:18:32.785Z,94.27
2023-05-01T03:21:00.471Z,94.04
2023-05-01T03:23:29.072Z,93.94
2023-05-01T03:25:57.763Z,93.37
2023-05-01T03:28:26.043Z,92.91
2023-05-01T03:30:53.921Z,92.47
2023-05-01T03:33:22.097Z,92.81
2023-05-01T03:35:58.962Z,92.40
2023-05-01T03:38:27.446Z,92.99
2023-05-01T03:41:10.306Z,93.05
2023-05-01T03:43:43.859Z,93.30
2023-05-01T03:46:25.896Z,93.33
2023-05-01T03:48:54.451Z,93.00
2023-05-01T03:51:22.560Z,92.73
2023-05-01T03:53:56.831Z,92.70
2023-05-01T03:56:25.826Z,92.22
2023-05-01T03:58:54.343Z,92.13
2023-05-01T04:01:22.445Z,92.25
2023-05-01T04:03:50.623Z,92.24
2023-05-01T04:06:18.976Z,91.99
2023-05-01T04:08:48.372Z,91.92
2023-05-01T04:11:16.051Z,91.67
2023-05-01T04:13:44.060Z,91.59
2023-05-01T04:16:12.339Z,91.68
2023-05-01T04:18:40.375Z,91.06
2023-05-01T04:21:09.395Z,90.81
2023-05-01T04:23:40.497Z,88.90
2023-05-01T04:26:08.257Z,86.79
2023-05-01T04:28:36.482Z,84.98
2023-05-01T04:31:05.726Z,80.07
2023-05-01T04:33:33.791Z,74.74
2023-05-01T04:36:01.745Z,66.07
2023-05-01T04:38:31.264Z,61.24
2023-05-01T04:41:00.382Z,61.11
2023-05-01T04:43:28.398Z,59.25
2023-05-01T04:45:56.337Z,55.86
2023-05-01T04:48:24.401Z,53.68
2023-05-01T04:50:52.168Z,54.04
2023-05-01T04:53:20.137Z,55.22
2023-05-01T04:55:47.797Z,54.80
2023-05-01T04:58:17.400Z,52.65
2023-05-01T05:00:48.074Z,49.99
2023-05-01T05:03:22.267Z,50.83
2023-05-01T05:05:50.011Z,48.24
2023-05-01T05:08:18.358Z,45.83
2023-05-01T05:11:01.017Z,43.79
2023-05-01T05:13:47.974Z,38.34
2023-05-01T05:16:16.295Z,34.28
2023-05-01T05:18:44.503Z,33.98
2023-05-01T05:21:12.217Z,33.82
2023-05-01T05:23:45.593Z,33.15
2023-05-01T05:26:13.230Z,32.31
2023-05-01T05:28:41.713Z,31.78
2023-05-01T05:31:09.562Z,32.14
2023-05-01T05:33:38.765Z,33.23
2023-05-01T05:36:07.530Z,33.66
2023-05-01T05:38:43.958Z,35.75
2023-05-01T05:41:15.368Z,37.09
2023-05-01T05:43:43.391Z,37.05
2023-05-01T05:46:11.655Z,36.62
2023-05-01T05:48:40.821Z,36.12
2023-05-01T05:51:08.850Z,34.96
2023-05-01T05:53:36.934Z,34.24
2023-05-01T05:56:04.850Z,34.72
2023-05-01T05:58:33.431Z,33.42
2023-05-01T06:01:01.169Z,31.97
2023-05-01T06:03:29.520Z,30.28
2023-05-01T06:06:01.644Z,29.76
2023-05-01T06:08:29.738Z,30.01
2023-05-01T06:10:58.921Z,30.24
2023-05-01T06:13:28.431Z,30.27
2023-05-01T06:15:56.371Z,29.91
2023-05-01T06:18:24.482Z,30.70
2023-05-01T06:20:52.572Z,30.39
2023-05-01T06:23:20.946Z,29.80
2023-05-01T06:26:11.656Z,28.67
2023-05-01T06:28:40.461Z,26.78
2023-05-01T06:31:08.426Z,25.97
2023-05-01T06:33:41.783Z,24.75
2023-05-01T06:36:23.607Z,24.91
2023-05-01T06:38:51.726Z,25.85
2023-05-01T06:41:20.223Z,26.72
2023-05-01T06:43:48.240Z,25.82
2023-05-01T06:46:17.576Z,24.82
2023-05-01T06:48:45.598Z,24.42
2023-05-01T06:51:16.157Z,23.63
2023-05-01T06:53:45.246Z,23.43
2023-05-01T06:56:12.934Z,22.58
2023-05-01T06:58:40.925Z,21.35
2023-05-01T07:01:09.753Z,19.80
2023-05-01T07:03:37.932Z,19.09
2023-05-01T07:06:05.811Z,18.28
2023-05-01T07:08:33.758Z,18.44
2023-05-01T07:11:01.597Z,18.17
2023-05-01T07:13:29.949Z,17.89
2023-05-01T07:15:57.567Z,18.91
2023-05-01T07:18:25.637Z,19.18
2023-05-01T07:20:53.360Z,18.59
2023-05-01T07:23:23.613Z,18.88
2023-05-01T07:25:51.972Z,18.32
2023-05-01T07:28:20.536Z,17.83
2023-05-01T07:30:48.389Z,18.06
2023-05-01T07:33:16.611Z,16.83
2023-05-01T07:35:44.460Z,16.06
2023-05-01T07:38:13.430Z,15.18
2023-05-01T07:40:41.159Z,15.04
2023-05-01T07:43:11.335Z,14.61
2023-05-01T07:45:40.038Z,14.57
2023-05-01T07:48:08.380Z,15.02
2023-05-01T07:50:36.425Z,14.80
2023-05-01T07:53:04.783Z,13.98
2023-05-01T07:55:32.915Z,14.00
2023-05-01T07:58:00.930Z,14.34
2023-05-01T08:00:29.010Z,14.28
2023-05-01T08:02:57.154Z,13.95
2023-05-01T08:05:24.891Z,14.18
2023-05-01T08:07:52.793Z,14.90
2023-05-01T08:10:20.692Z,14.68
2023-05-01T08:12:48.623Z,14.57
2023-05-01T08:15:16.451Z,14.41
2023-05-01T08:17:44.384Z,14.14
2023-05-01T08:20:12.809Z,14.61
2023-05-01T08:22:40.722Z,14.32
2023-05-01T08:25:08.721Z,14.08
2023-05-01T08:27:36.850Z,14.00
2023-05-01T08:30:04.980Z,13.40
2023-05-01T08:32:33.691Z,14.04
2023-05-01T08:35:01.401Z,13.54
2023-05-01T08:37:29.725Z,13.34
2023-05-01T08:39:57.574Z,13.63
2023-05-01T08:42:25.901Z,13.13
2023-05-01T08:44:59.324Z,13.45
2023-05-01T08:47:29.548Z,13.37
2023-05-01T08:49:59.625Z,13.16
2023-05-01T08:52:29.093Z,13.01
2023-05-01T08:54:57.449Z,13.32
2023-05-01T08:57:26.857Z,13.49
2023-05-01T08:59:58.427Z,13.87
2023-05-01T09:02:28.001Z,13.44
2023-05-01T09:04:55.998Z,14.14
2023-05-01T09:07:24.198Z,14.21
2023-05-01T09:09:51.893Z,13.73
2023-05-01T09:12:25.499Z,13.76
2023-05-01T09:14:54.376Z,13.89
2023-05-01T09:17:24.095Z,13.89
2023-05-01T09:19:52.269Z,14.04
2023-05-01T09:22:20.588Z,13.98
2023-05-01T09:24:48.593Z,13.99
2023-05-01T09:27:16.905Z,14.80
2023-05-01T09:29:48.663Z,15.04
2023-05-01T09:32:30.595Z,14.93
2023-05-01T09:35:15.131Z,14.81
2023-05-01T09:37:43.873Z,14.59
2023-05-01T09:40:13.149Z,14.71
2023-05-01T09:42:56.065Z,15.38
2023-05-01T09:45:24.113Z,15.70
2023-05-01T09:47:52.074Z,15.15
2023-05-01T09:50:34.332Z,15.16
2023-05-01T09:53:05.121Z,14.95
2023-05-01T09:55:33.238Z,15.13
2023-05-01T09:58:01.210Z,15.34
2023-05-01T10:00:30.245Z,15.41
2023-05-01T10:02:58.738Z,15.52
2023-05-01T10:05:27.372Z,15.84
2023-05-01T10:08:03.791Z,15.70
2023-05-01T10:10:31.799Z,15.14
2023-05-01T10:13:13.768Z,15.84
2023-05-01T10:15:41.620Z,16.67
2023-05-01T10:18:12.117Z,18.02
2023-05-01T10:20:40.048Z,18.81
2023-05-01T10:23:08.795Z,19.70
2023-05-01T10:25:38.902Z,19.45
2023-05-01T10:28:09.078Z,20.56
2023-05-01T10:30:38.217Z,21.35
2023-05-01T10:33:06.357Z,21.69
2023-05-01T10:35:40.227Z,22.35
2023-05-01T10:38:18.933Z,22.31
2023-05-01T10:40:48.513Z,22.58
2023-05-01T10:43:30.539Z,22.10
2023-05-01T10:46:19.093Z,21.53
2023-05-01T10:48:47.121Z,22.20
2023-05-01T10:51:20.439Z,22.00
2023-05-01T10:54:09.303Z,21.33
2023-05-01T10:56:37.039Z,21.79
2023-05-01T10:59:06.001Z,21.61
2023-05-01T11:01:39.797Z,23.21
2023-05-01T11:04:23.587Z,23.37
2023-05-01T11:07:07.962Z,24.24
2023-05-01T11:09:45.153Z,23.96
2023-05-01T11:12:14.932Z,24.26
2023-05-01T11:15:02.397Z,24.66
2023-05-01T11:17:42.346Z,25.32
2023-05-01T11:20:34.931Z,25.14
2023-05-01T11:23:02.769Z,24.71
2023-05-01T11:25:32.987Z,25.17
2023-05-01T11:28:04.803Z,24.18
2023-05-01T11:30:42.360Z,24.18
2023-05-01T11:33:11.162Z,24.63
2023-05-01T11:35:39.695Z,24.94
2023-05-01T11:38:16.421Z,24.81
2023-05-01T11:40:44.885Z,24.55
2023-05-01T11:43:12.799Z,24.57
2023-05-01T11:45:41.045Z,24.43
2023-05-01T11:48:18.385Z,23.80
2023-05-01T11:50:46.403Z,24.44
2023-05-01T11:53:18.683Z,24.99
2023-05-01T11:55:46.811Z,25.72
2023-05-01T11:58:15.253Z,25.63
2023-05-01T12:00:43.831Z,25.65
2023-05-01T12:03:15.621Z,25.39
2023-05-01T12:05:45.444Z,25.48
2023-05-01T12:08:14.962Z,24.99
2023-05-01T12:10:44.501Z,25.45
2023-05-01T12:13:14.388Z,24.67
2023-05-01T12:15:53.032Z,24.75
2023-05-01T12:18:22.028Z,25.18
2023-05-01T12:20:52.437Z,25.73
2023-05-01T12:23:35.014Z,25.10
2023-05-01T12:26:15.418Z,24.36
2023-05-01T12:28:54.834Z,24.84
2023-05-01T12:31:23.469Z,24.68
2023-05-01T12:34:01.155Z,24.88
2023-05-01T12:36:31.768Z,25.18
2023-05-01T12:39:02.404Z,25.58
2023-05-01T12:41:37.247Z,25.71
2023-05-01T12:44:20.658Z,25.61
2023-05-01T12:47:03.490Z,26.18
2023-05-01T12:49:32.529Z,25.40
2023-05-01T12:52:01.820Z,25.32
2023-05-01T12:54:37.506Z,25.04
2023-05-01T12:57:08.062Z,24.84
2023-05-01T12:59:38.659Z,24.47
2023-05-01T13:02:17.340Z,24.50
2023-05-01T13:04:47.086Z,24.20
2023-05-01T13:07:17.437Z,24.41
2023-05-01T13:10:00.904Z,24.92
2023-05-01T13:12:30.282Z,25.82
2023-05-01T13:14:58.834Z,25.58
2023-05-01T13:17:33.351Z,25.44
2023-05-01T13:20:04.142Z,25.30
2023-05-01T13:22:36.653Z,25.11
2023-05-01T13:25:14.398Z,25.55
2023-05-01T13:27:47.348Z,24.81
2023-05-01T13:30:16.224Z,25.29
2023-05-01T13:32:46.221Z,25.29
2023-05-01T13:35:26.887Z,24.46
2023-05-01T13:37:55.269Z,23.52
2023-05-01T13:40:26.386Z,24.15
2023-05-01T13:42:54.410Z,24.51
2023-05-01T13:45:22.350Z,24.66
2023-05-01T13:47:52.082Z,24.91
2023-05-01T13:50:20.030Z,24.35
2023-05-01T13:52:48.538Z,24.57
2023-05-01T13:55:18.010Z,24.31
2023-05-01T13:57:45.990Z,23.97
2023-05-01T14:00:18.713Z,23.98
2023-05-01T14:02:49.275Z,24.54
2023-05-01T14:05:30.507Z,23.99
2023-05-01T14:07:59.470Z,24.62
2023-05-01T14:10:29.079Z,24.05
2023-05-01T14:12:58.965Z,24.03
2023-05-01T14:15:28.793Z,24.00
2023-05-01T14:17:58.898Z,24.66
2023-05-01T14:20:26.870Z,24.96
2023-05-01T14:22:54.734Z,25.08
2023-05-01T14:25:28.677Z,25.58
2023-05-01T14:27:58.464Z,25.95
2023-05-01T14:30:33.390Z,25.80
2023-05-01T14:33:09.521Z,25.38
2023-05-01T14:35:38.062Z,25.05
2023-05-01T14:38:14.438Z,25.23
2023-05-01T14:40:42.730Z,25.39
2023-05-01T14:43:13.989Z,25.63
2023-05-01T14:45:43.800Z,25.76
2023-05-01T14:48:23.266Z,25.69
2023-05-01T14:50:52.338Z,26.07
2023-05-01T14:53:20.389Z,26.19
2023-05-01T14:55:51.720Z,26.20
2023-05-01T14:58:19.707Z,26.28
2023-05-01T15:00:47.415Z,25.43
2023-05-01T15:03:15.518Z,24.87
2023-05-01T15:05:44.474Z,24.69
2023-05-01T15:08:12.558Z,24.74
2023-05-01T15:10:40.187Z,24.58
2023-05-01T15:13:08.997Z,24.54
2023-05-01T15:15:36.922Z,24.46
2023-05-01T15:18:05.678Z,24.67
2023-05-01T15:20:33.753Z,24.30
2023-05-01T15:23:01.660Z,24.48
2023-05-01T15:25:29.405Z,24.73
2023-05-01T15:27:57.762Z,24.83
2023-05-01T15:30:25.476Z,24.92
2023-05-01T15:32:55.913Z,24.73
2023-05-01T15:35:24.009Z,24.94
2023-05-01T15:37:52.791Z,25.17
2023-05-01T15:40:21.011Z,25.32
2023-05-01T15:42:48.946Z,25.79
2023-05-01T15:45:17.003Z,25.90
2023-05-01T15:47:45.214Z,25.92
2023-05-01T15:50:13.114Z,26.67
2023-05-01T15:52:41.225Z,26.51
2023-05-01T15:55:09.129Z,26.84
2023-05-01T15:57:37.226Z,26.73
2023-05-01T16:00:05.508Z,26.69
2023-05-01T16:02:33.925Z,26.68
2023-05-01T16:05:01.711Z,26.96
2023-05-01T16:07:30.092Z,27.05
2023-05-01T16:09:58.857Z,27.35
2023-05-01T16:12:30.249Z,27.60
2023-05-01T16:14:58.097Z,27.46
2023-05-01T16:17:26.572Z,27.75
2023-05-01T16:19:55.251Z,27.69
2023-05-01T16:22:23.256Z,28.04
2023-05-01T16:24:50.960Z,28.25
2023-05-01T16:27:19.072Z,28.37
2023-05-01T16:29:46.853Z,28.81
2023-05-01T16:32:16.651Z,29.14
2023-05-01T16:34:44.971Z,28.94
2023-05-01T16:37:15.799Z,29.24
2023-05-01T16:39:43.498Z,29.23
2023-05-01T16:42:15.604Z,29.38
2023-05-01T16:44:43.402Z,29.43
2023-05-01T16:47:12.828Z,29.55
2023-05-01T16:49:46.524Z,29.91
2023-05-01T16:52:15.699Z,30.03
2023-05-01T16:54:43.353Z,30.37
2023-05-01T16:57:11.284Z,30.79
2023-05-01T16:59:38.980Z,30.50
2023-05-01T17:02:07.837Z,30.88
2023-05-01T17:04:36.347Z,31.26
2023-05-01T17:07:04.466Z,31.43
2023-05-01T17:09:32.457Z,31.70
2023-05-01T17:12:00.440Z,31.91
2023-05-01T17:14:29.007Z,32.42
2023-05-01T17:17:00.383Z,32.54
2023-05-01T17:19:28.266Z,32.65
2023-05-01T17:21:58.120Z,32.66
2023-05-01T17:24:27.071Z,32.78
2023-05-01T17:26:55.691Z,32.86
2023-05-01T17:29:23.902Z,33.07
2023-05-01T17:31:51.889Z,32.91
2023-05-01T17:34:19.666Z,33.03
2023-05-01T17:36:47.669Z,33.39
2023-05-01T17:39:15.433Z,33.54
2023-05-01T17:41:43.533Z,33.73
2023-05-01T17:44:11.365Z,33.99
2023-05-01T17:46:39.447Z,34.09
2023-05-01T17:49:07.592Z,34.14
2023-05-01T17:51:35.720Z,34.39
2023-05-01T17:54:03.418Z,34.55
2023-05-01T17:56:31.368Z,34.99
2023-05-01T17:58:59.563Z,34.97
2023-05-01T18:01:28.778Z,35.29
2023-05-01T18:03:56.633Z,35.49
2023-05-01T18:06:24.890Z,35.85
2023-05-01T18:08:53.191Z,36.12
2023-05-01T18:11:21.780Z,36.35
2023-05-01T18:13:49.474Z,36.43
2023-05-01T18:16:18.689Z,36.61
2023-05-01T18:18:49.656Z,36.93
2023-05-01T18:21:17.645Z,37.27
2023-05-01T18:23:48.405Z,37.43
2023-05-01T18:26:16.948Z,37.68
2023-05-01T18:28:44.616Z,37.94
2023-05-01T18:31:14.402Z,38.13
2023-05-01T18:33:42.117Z,38.55
2023-05-01T18:36:10.726Z,38.71
2023-05-01T18:38:38.385Z,39.07
2023-05-01T18:41:06.262Z,39.27
2023-05-01T18:43:33.895Z,39.42
2023-05-01T18:46:02.085Z,39.52
2023-05-01T18:48:29.787Z,39.79
2023-05-01T18:51:07.845Z,40.09
2023-05-01T18:53:36.992Z,40.19
2023-05-01T18:56:06.228Z,40.53
2023-05-01T18:58:34.025Z,40.75
2023-05-01T19:01:02.439Z,40.67
2023-05-01T19:03:30.238Z,40.80
2023-05-01T19:05:58.580Z,41.27
2023-05-01T19:08:26.360Z,41.63
2023-05-01T19:10:54.366Z,41.72
2023-05-01T19:13:21.993Z,42.15
2023-05-01T19:15:49.912Z,42.50
2023-05-01T19:18:17.738Z,42.78
2023-05-01T19:20:46.085Z,43.26
2023-05-01T19:23:13.855Z,43.24
2023-05-01T19:25:41.851Z,43.49
2023-05-01T19:28:09.629Z,43.65
2023-05-01T19:30:37.572Z,44.05
2023-05-01T19:33:05.271Z,43.86
2023-05-01T19:35:34.173Z,44.18
2023-05-01T19:38:02.164Z,44.46
2023-05-01T19:40:30.074Z,44.55
2023-05-01T19:42:58.068Z,44.90
2023-05-01T19:45:26.349Z,44.97
2023-05-01T19:47:54.026Z,45.20
2023-05-01T19:50:22.201Z,45.28
2023-05-01T19:52:49.856Z,45.58
2023-05-01T19:55:18.235Z,45.76
2023-05-01T19:57:45.936Z,46.00
2023-05-01T20:00:14.533Z,45.84
2023-05-01T20:02:42.203Z,46.18
2023-05-01T20:05:13.095Z,46.01
2023-05-01T20:07:41.319Z,45.96
2023-05-01T20:10:09.797Z,46.11
2023-05-01T20:12:38.336Z,46.33
2023-05-01T20:15:06.858Z,46.38
2023-05-01T20:17:35.334Z,46.37
2023-05-01T20:20:03.783Z,46.75
2023-05-01T20:22:31.558Z,46.76
2023-05-01T20:24:59.607Z,47.01
2023-05-01T20:27:27.534Z,46.65
2023-05-01T20:29:55.588Z,47.10
2023-05-01T20:32:23.310Z,46.82
2023-05-01T20:34:52.541Z,46.97
2023-05-01T20:37:20.238Z,46.98
2023-05-01T20:39:48.655Z,47.05
2023-05-01T20:42:16.487Z,46.69
2023-05-01T20:44:44.620Z,47.11
2023-05-01T20:47:13.876Z,47.10
2023-05-01T20:49:41.863Z,47.44
2023-05-01T20:52:09.634Z,47.47
2023-05-01T20:54:37.779Z,47.71
2023-05-01T20:57:05.566Z,47.76
2023-05-01T20:59:33.519Z,47.83
2023-05-01T21:02:05.153Z,47.99
2023-05-01T21:04:33.314Z,48.01
2023-05-01T21:07:00.957Z,47.84
2023-05-01T21:09:29.096Z,48.37
2023-05-01T21:11:56.758Z,48.45
2023-05-01T21:14:24.750Z,48.25
2023-05-01T21:16:52.423Z,48.67
2023-05-01T21:19:20.779Z,48.83
2023-05-01T21:21:48.541Z,48.99
2023-05-01T21:24:26.182Z,49.17
2023-05-01T21:26:56.866Z,49.57
2023-05-01T21:29:24.862Z,49.75
2023-05-01T21:31:52.589Z,50.25
2023-05-01T21:34:20.752Z,50.20
2023-05-01T21:36:49.329Z,50.58
2023-05-01T21:39:17.004Z,50.79
2023-05-01T21:41:48.237Z,50.82
2023-05-01T21:44:16.038Z,50.83
2023-05-01T21:46:44.020Z,50.94
2023-05-01T21:49:18.617Z,51.49
2023-05-01T21:51:46.727Z,51.60
2023-05-01T21:54:16.339Z,52.01
2023-05-01T21:56:44.560Z,51.91
2023-05-01T21:59:13.199Z,51.89
2023-05-01T22:01:41.386Z,52.45
2023-05-01T22:04:09.475Z,52.65
2023-05-01T22:06:37.546Z,52.88
2023-05-01T22:09:05.297Z,53.26
2023-05-01T22:11:33.219Z,53.38
2023-05-01T22:14:01.962Z,53.51
2023-05-01T22:16:29.952Z,53.77
2023-05-01T22:18:57.625Z,53.76
2023-05-01T22:21:25.533Z,54.07
2023-05-01T22:23:53.226Z,54.44
2023-05-01T22:26:21.172Z,54.57
2023-05-01T22:28:49.790Z,54.68
2023-05-01T22:31:17.884Z,54.78
2023-05-01T22:33:45.804Z,55.26
2023-05-01T22:36:13.859Z,55.62
2023-05-01T22:38:41.567Z,55.61
2023-05-01T22:41:09.497Z,55.70
2023-05-01T22:43:37.582Z,55.82
2023-05-01T22:46:05.930Z,55.92
2023-05-01T22:48:33.808Z,56.34
2023-05-01T22:51:01.715Z,56.62
2023-05-01T22:53:31.219Z,56.89
2023-05-01T22:55:59.245Z,56.99
2023-05-01T22:58:26.958Z,57.14
2023-05-01T23:00:54.864Z,57.33
2023-05-01T23:03:22.644Z,57.62
2023-05-01T23:05:50.883Z,57.85
2023-05-01T23:08:18.554Z,58.09
2023-05-01T23:10:46.565Z,58.50
2023-05-01T23:13:23.618Z,58.76
2023-05-01T23:15:52.442Z,58.76
2023-05-01T23:18:27.371Z,59.09
2023-05-01T23:20:56.445Z,59.32
2023-05-01T23:23:35.088Z,59.25
2023-05-01T23:26:03.519Z,59.28
2023-05-01T23:28:31.309Z,59.61
2023-05-01T23:31:02.629Z,59.75
2023-05-01T23:33:39.122Z,60.19
2023-05-01T23:36:12.430Z,60.53
2023-05-01T23:38:40.479Z,60.74
2023-05-01T23:41:09.117Z,60.85
2023-05-01T23:43:38.650Z,61.06
2023-05-01T23:46:07.713Z,61.41
2023-05-01T23:48:36.023Z,61.32
2023-05-01T23:51:04.582Z,61.79
2023-05-01T23:53:32.300Z,61.82
2023-05-01T23:56:00.228Z,62.10
2023-05-01T23:58:27.936Z,62.23
